sensor_id;sensor_type;location;lat;lon;timestamp;P1;durP1;ratioP1;P2;durP2;ratioP2
23814;SDS011;12088;53.078;8.720;2023-05-14T00:00:17;3.30;;;3.00;;
23814;SDS011;12088;53.078;8.720;2023-05-14T00:02:43;3.47;;;2.90;;
23814;SDS011;12088;53.078;8.720;2023-05-14T00:05:08;3.17;;;2.57;;
23814;SDS011;12088;53.078;8.720;2023-05-14T00:07:34;3.23;;;2.90;;
23814;SDS011;12088;53.078;8.720;2023-05-14T00:10:00;4.33;;;3.17;;
23814;SDS011;12088;53.078;8.720;2023-05-14T00:12:25;2.83;;;2.63;;
23814;SDS011;12088;53.078;8.720;2023-05-14T00:14:51;4.10;;;2.60;;
23814;SDS011;12088;53.078;8.720;2023-05-14T00:17:17;7.27;;;3.10;;
23814;SDS011;12088;53.078;8.720;2023-05-14T00:19:43;5.00;;;2.90;;
23814;SDS011;12088;53.078;8.720;2023-05-14T00:22:09;5.87;;;2.80;;
23814;SDS011;12088;53.078;8.720;2023-05-14T00:24:35;4.50;;;2.93;;
23814;SDS011;12088;53.078;8.720;2023-05-14T00:27:01;5.43;;;3.17;;
23814;SDS011;12088;53.078;8.720;2023-05-14T00:29:27;6.43;;;3.70;;
23814;SDS011;12088;53.078;8.720;2023-05-14T00:31:53;5.07;;;3.37;;
23814;SDS011;12088;53.078;8.720;2023-05-14T00:34:18;9.90;;;2.97;;
23814;SDS011;12088;53.078;8.720;2023-05-14T00:36:44;5.17;;;3.13;;
23814;SDS011;12088;53.078;8.720;2023-05-14T00:39:10;3.30;;;3.00;;
23814;SDS011;12088;53.078;8.720;2023-05-14T00:41:36;4.53;;;3.00;;
23814;SDS011;12088;53.078;8.720;2023-05-14T00:44:02;3.93;;;3.30;;
23814;SDS011;12088;53.078;8.720;2023-05-14T00:46:27;3.33;;;2.43;;
23814;SDS011;12088;53.078;8.720;2023-05-14T00:48:53;4.23;;;2.83;;
23814;SDS011;12088;53.078;8.720;2023-05-14T00:51:19;4.87;;;3.23;;
23814;SDS011;12088;53.078;8.720;2023-05-14T00:53:45;3.87;;;2.50;;
23814;SDS011;12088;53.078;8.720;2023-05-14T00:56:11;6.60;;;3.80;;
23814;SDS011;12088;53.078;8.720;2023-05-14T00:58:39;4.37;;;3.23;;
23814;SDS011;12088;53.078;8.720;2023-05-14T01:01:04;6.07;;;4.37;;
23814;SDS011;12088;53.078;8.720;2023-05-14T01:03:30;4.37;;;3.13;;
23814;SDS011;12088;53.078;8.720;2023-05-14T01:08:52;4.60;;;3.40;;
23814;SDS011;12088;53.078;8.720;2023-05-14T01:11:28;5.83;;;3.00;;
23814;SDS011;12088;53.078;8.720;2023-05-14T01:14:00;5.03;;;3.00;;
23814;SDS011;12088;53.078;8.720;2023-05-14T01:16:47;4.40;;;3.40;;
23814;SDS011;12088;53.078;8.720;2023-05-14T01:19:36;6.53;;;3.63;;
23814;SDS011;12088;53.078;8.720;2023-05-14T01:22:04;4.77;;;3.40;;
23814;SDS011;12088;53.078;8.720;2023-05-14T01:24:30;3.97;;;3.10;;
23814;SDS011;12088;53.078;8.720;2023-05-14T01:26:57;3.93;;;2.80;;
23814;SDS011;12088;53.078;8.720;2023-05-14T01:29:30;3.80;;;3.33;;
23814;SDS011;12088;53.078;8.720;2023-05-14T01:32:00;3.77;;;3.33;;
23814;SDS011;12088;53.078;8.720;2023-05-14T01:34:31;3.67;;;2.93;;
23814;SDS011;12088;53.078;8.720;2023-05-14T01:37:00;3.87;;;2.97;;
23814;SDS011;12088;53.078;8.720;2023-05-14T01:39:26;3.90;;;3.10;;
23814;SDS011;12088;53.078;8.720;2023-05-14T01:41:53;5.90;;;3.27;;
23814;SDS011;12088;53.078;8.720;2023-05-14T01:44:19;5.53;;;3.77;;
23814;SDS011;12088;53.078;8.720;2023-05-14T01:46:45;3.57;;;3.20;;
23814;SDS011;12088;53.078;8.720;2023-05-14T01:49:11;4.80;;;3.23;;
23814;SDS011;12088;53.078;8.720;2023-05-14T01:51:36;5.43;;;3.83;;
23814;SDS011;12088;53.078;8.720;2023-05-14T01:54:02;5.63;;;4.00;;
23814;SDS011;12088;53.078;8.720;2023-05-14T01:56:31;4.07;;;2.87;;
23814;SDS011;12088;53.078;8.720;2023-05-14T01:58:57;4.57;;;3.27;;
23814;SDS011;12088;53.078;8.720;2023-05-14T02:01:22;4.03;;;3.13;;
23814;SDS011;12088;53.078;8.720;2023-05-14T02:03:49;4.73;;;3.40;;
23814;SDS011;12088;53.078;8.720;2023-05-14T02:06:15;5.87;;;3.23;;
23814;SDS011;12088;53.078;8.720;2023-05-14T02:08:41;5.63;;;3.33;;
23814;SDS011;12088;53.078;8.720;2023-05-14T02:11:06;3.50;;;2.53;;
23814;SDS011;12088;53.078;8.720;2023-05-14T02:13:32;4.07;;;3.07;;
23814;SDS011;12088;53.078;8.720;2023-05-14T02:15:57;4.47;;;3.07;;
23814;SDS011;12088;53.078;8.720;2023-05-14T02:18:23;4.97;;;2.90;;
23814;SDS011;12088;53.078;8.720;2023-05-14T02:20:48;4.17;;;3.27;;
23814;SDS011;12088;53.078;8.720;2023-05-14T02:23:14;4.50;;;3.27;;
23814;SDS011;12088;53.078;8.720;2023-05-14T02:25:39;5.70;;;3.60;;
23814;SDS011;12088;53.078;8.720;2023-05-14T02:28:05;6.27;;;2.70;;
23814;SDS011;12088;53.078;8.720;2023-05-14T02:30:30;4.13;;;3.50;;
23814;SDS011;12088;53.078;8.720;2023-05-14T02:32:56;5.63;;;3.73;;
23814;SDS011;12088;53.078;8.720;2023-05-14T02:35:22;4.67;;;3.70;;
23814;SDS011;12088;53.078;8.720;2023-05-14T02:37:47;4.70;;;3.30;;
23814;SDS011;12088;53.078;8.720;2023-05-14T02:40:13;3.93;;;3.07;;
23814;SDS011;12088;53.078;8.720;2023-05-14T02:42:38;3.63;;;3.27;;
23814;SDS011;12088;53.078;8.720;2023-05-14T02:45:04;5.87;;;3.60;;
23814;SDS011;12088;53.078;8.720;2023-05-14T02:47:30;4.93;;;3.47;;
23814;SDS011;12088;53.078;8.720;2023-05-14T02:49:56;8.10;;;3.57;;
23814;SDS011;12088;53.078;8.720;2023-05-14T02:52:21;3.53;;;3.03;;
23814;SDS011;12088;53.078;8.720;2023-05-14T02:54:47;3.93;;;2.93;;
23814;SDS011;12088;53.078;8.720;2023-05-14T02:57:12;4.43;;;3.87;;
23814;SDS011;12088;53.078;8.720;2023-05-14T02:59:38;4.57;;;3.57;;
23814;SDS011;12088;53.078;8.720;2023-05-14T03:02:04;6.53;;;3.77;;
23814;SDS011;12088;53.078;8.720;2023-05-14T03:04:29;5.17;;;3.43;;
23814;SDS011;12088;53.078;8.720;2023-05-14T03:06:55;6.03;;;3.27;;
23814;SDS011;12088;53.078;8.720;2023-05-14T03:09:20;5.90;;;3.63;;
23814;SDS011;12088;53.078;8.720;2023-05-14T03:11:46;5.70;;;3.67;;
23814;SDS011;12088;53.078;8.720;2023-05-14T03:14:12;4.23;;;3.17;;
23814;SDS011;12088;53.078;8.720;2023-05-14T03:16:37;4.53;;;2.77;;
23814;SDS011;12088;53.078;8.720;2023-05-14T03:19:06;5.63;;;3.27;;
23814;SDS011;12088;53.078;8.720;2023-05-14T03:21:31;5.30;;;4.07;;
23814;SDS011;12088;53.078;8.720;2023-05-14T03:23:57;4.23;;;3.67;;
23814;SDS011;12088;53.078;8.720;2023-05-14T03:26:23;6.97;;;3.50;;
23814;SDS011;12088;53.078;8.720;2023-05-14T03:28:48;4.30;;;3.40;;
23814;SDS011;12088;53.078;8.720;2023-05-14T03:31:14;8.40;;;3.77;;
23814;SDS011;12088;53.078;8.720;2023-05-14T03:33:40;5.37;;;3.50;;
23814;SDS011;12088;53.078;8.720;2023-05-14T03:36:05;4.03;;;3.37;;
23814;SDS011;12088;53.078;8.720;2023-05-14T03:38:31;5.40;;;4.17;;
23814;SDS011;12088;53.078;8.720;2023-05-14T03:40:57;4.30;;;3.37;;
23814;SDS011;12088;53.078;8.720;2023-05-14T03:43:22;4.57;;;4.00;;
23814;SDS011;12088;53.078;8.720;2023-05-14T03:45:48;5.47;;;3.70;;
23814;SDS011;12088;53.078;8.720;2023-05-14T03:48:16;7.00;;;3.47;;
23814;SDS011;12088;53.078;8.720;2023-05-14T03:50:42;6.87;;;4.07;;
23814;SDS011;12088;53.078;8.720;2023-05-14T03:53:08;7.77;;;3.93;;
23814;SDS011;12088;53.078;8.720;2023-05-14T03:55:33;5.60;;;4.17;;
23814;SDS011;12088;53.078;8.720;2023-05-14T03:57:59;3.97;;;3.17;;
23814;SDS011;12088;53.078;8.720;2023-05-14T04:00:24;4.93;;;3.20;;
23814;SDS011;12088;53.078;8.720;2023-05-14T04:02:50;3.90;;;3.30;;
23814;SDS011;12088;53.078;8.720;2023-05-14T04:05:15;4.43;;;3.50;;
23814;SDS011;12088;53.078;8.720;2023-05-14T04:07:41;7.23;;;3.60;;
23814;SDS011;12088;53.078;8.720;2023-05-14T04:10:07;7.13;;;4.37;;
23814;SDS011;12088;53.078;8.720;2023-05-14T04:12:33;8.73;;;3.83;;
23814;SDS011;12088;53.078;8.720;2023-05-14T04:14:58;4.97;;;3.40;;
23814;SDS011;12088;53.078;8.720;2023-05-14T04:17:24;4.57;;;3.47;;
23814;SDS011;12088;53.078;8.720;2023-05-14T04:19:49;4.93;;;3.97;;
23814;SDS011;12088;53.078;8.720;2023-05-14T04:22:15;9.40;;;3.57;;
23814;SDS011;12088;53.078;8.720;2023-05-14T04:24:41;3.23;;;2.93;;
23814;SDS011;12088;53.078;8.720;2023-05-14T04:27:06;4.40;;;2.87;;
23814;SDS011;12088;53.078;8.720;2023-05-14T04:29:32;4.20;;;3.50;;
23814;SDS011;12088;53.078;8.720;2023-05-14T04:31:57;7.70;;;4.10;;
23814;SDS011;12088;53.078;8.720;2023-05-14T04:34:23;4.07;;;3.07;;
23814;SDS011;12088;53.078;8.720;2023-05-14T04:36:49;6.23;;;3.07;;
23814;SDS011;12088;53.078;8.720;2023-05-14T04:39:15;4.43;;;3.40;;
23814;SDS011;12088;53.078;8.720;2023-05-14T04:41:41;4.10;;;2.90;;
23814;SDS011;12088;53.078;8.720;2023-05-14T04:44:06;4.30;;;3.10;;
23814;SDS011;12088;53.078;8.720;2023-05-14T04:46:33;7.37;;;3.33;;
23814;SDS011;12088;53.078;8.720;2023-05-14T04:48:58;5.50;;;3.83;;
23814;SDS011;12088;53.078;8.720;2023-05-14T04:51:24;4.13;;;3.07;;
23814;SDS011;12088;53.078;8.720;2023-05-14T04:53:50;5.63;;;4.27;;
23814;SDS011;12088;53.078;8.720;2023-05-14T04:56:15;7.17;;;3.73;;
23814;SDS011;12088;53.078;8.720;2023-05-14T04:58:41;3.87;;;2.57;;
23814;SDS011;12088;53.078;8.720;2023-05-14T05:01:06;4.30;;;3.23;;
23814;SDS011;12088;53.078;8.720;2023-05-14T05:03:33;5.20;;;3.37;;
23814;SDS011;12088;53.078;8.720;2023-05-14T05:05:58;5.03;;;3.37;;
23814;SDS011;12088;53.078;8.720;2023-05-14T05:08:24;4.57;;;2.83;;
23814;SDS011;12088;53.078;8.720;2023-05-14T05:10:50;4.07;;;3.53;;
23814;SDS011;12088;53.078;8.720;2023-05-14T05:13:16;4.40;;;3.27;;
23814;SDS011;12088;53.078;8.720;2023-05-14T05:15:42;3.87;;;3.03;;
23814;SDS011;12088;53.078;8.720;2023-05-14T05:18:07;3.47;;;2.90;;
23814;SDS011;12088;53.078;8.720;2023-05-14T05:20:33;5.70;;;2.80;;
23814;SDS011;12088;53.078;8.720;2023-05-14T05:22:59;6.50;;;3.03;;
23814;SDS011;12088;53.078;8.720;2023-05-14T05:25:24;5.07;;;3.03;;
23814;SDS011;12088;53.078;8.720;2023-05-14T05:27:51;2.83;;;2.53;;
23814;SDS011;12088;53.078;8.720;2023-05-14T05:30:16;4.83;;;3.03;;
23814;SDS011;12088;53.078;8.720;2023-05-14T05:32:42;4.70;;;3.20;;
23814;SDS011;12088;53.078;8.720;2023-05-14T05:35:08;5.17;;;2.83;;
23814;SDS011;12088;53.078;8.720;2023-05-14T05:37:33;3.33;;;2.60;;
23814;SDS011;12088;53.078;8.720;2023-05-14T05:39:59;6.00;;;3.13;;
23814;SDS011;12088;53.078;8.720;2023-05-14T05:42:25;3.33;;;2.80;;
23814;SDS011;12088;53.078;8.720;2023-05-14T05:44:50;3.63;;;2.77;;
23814;SDS011;12088;53.078;8.720;2023-05-14T05:47:16;6.77;;;2.60;;
23814;SDS011;12088;53.078;8.720;2023-05-14T05:49:41;4.57;;;3.07;;
23814;SDS011;12088;53.078;8.720;2023-05-14T05:52:07;3.27;;;2.97;;
23814;SDS011;12088;53.078;8.720;2023-05-14T05:54:33;4.17;;;2.93;;
23814;SDS011;12088;53.078;8.720;2023-05-14T05:56:58;3.83;;;2.60;;
23814;SDS011;12088;53.078;8.720;2023-05-14T05:59:24;3.90;;;2.67;;
23814;SDS011;12088;53.078;8.720;2023-05-14T06:01:49;4.73;;;2.60;;
23814;SDS011;12088;53.078;8.720;2023-05-14T06:04:15;4.67;;;3.10;;
23814;SDS011;12088;53.078;8.720;2023-05-14T06:06:41;9.03;;;3.37;;
23814;SDS011;12088;53.078;8.720;2023-05-14T06:09:06;3.43;;;2.83;;
23814;SDS011;12088;53.078;8.720;2023-05-14T06:11:33;4.80;;;3.30;;
23814;SDS011;12088;53.078;8.720;2023-05-14T06:13:59;3.80;;;2.90;;
23814;SDS011;12088;53.078;8.720;2023-05-14T06:16:24;3.73;;;2.80;;
23814;SDS011;12088;53.078;8.720;2023-05-14T06:18:50;4.50;;;3.27;;
23814;SDS011;12088;53.078;8.720;2023-05-14T06:21:19;3.83;;;2.87;;
23814;SDS011;12088;53.078;8.720;2023-05-14T06:23:45;4.83;;;2.80;;
23814;SDS011;12088;53.078;8.720;2023-05-14T06:26:11;5.07;;;2.80;;
23814;SDS011;12088;53.078;8.720;2023-05-14T06:28:36;3.33;;;3.00;;
23814;SDS011;12088;53.078;8.720;2023-05-14T06:31:02;12.07;;;3.13;;
23814;SDS011;12088;53.078;8.720;2023-05-14T06:33:27;5.27;;;3.33;;
23814;SDS011;12088;53.078;8.720;2023-05-14T06:35:57;3.37;;;2.60;;
23814;SDS011;12088;53.078;8.720;2023-05-14T06:38:23;3.60;;;2.97;;
23814;SDS011;12088;53.078;8.720;2023-05-14T06:40:49;4.03;;;2.73;;
23814;SDS011;12088;53.078;8.720;2023-05-14T06:43:16;3.00;;;2.70;;
23814;SDS011;12088;53.078;8.720;2023-05-14T06:45:42;4.00;;;3.13;;
23814;SDS011;12088;53.078;8.720;2023-05-14T06:48:08;4.73;;;3.03;;
23814;SDS011;12088;53.078;8.720;2023-05-14T06:50:34;3.43;;;2.80;;
23814;SDS011;12088;53.078;8.720;2023-05-14T06:53:00;3.63;;;3.13;;
23814;SDS011;12088;53.078;8.720;2023-05-14T06:55:25;3.80;;;3.07;;
23814;SDS011;12088;53.078;8.720;2023-05-14T06:57:51;4.10;;;2.77;;
23814;SDS011;12088;53.078;8.720;2023-05-14T07:00:16;3.47;;;2.77;;
23814;SDS011;12088;53.078;8.720;2023-05-14T07:02:42;3.57;;;3.00;;
23814;SDS011;12088;53.078;8.720;2023-05-14T07:05:09;2.80;;;2.50;;
23814;SDS011;12088;53.078;8.720;2023-05-14T07:07:34;5.78;;;2.55;;
23814;SDS011;12088;53.078;8.720;2023-05-14T07:10:00;3.05;;;2.58;;
23814;SDS011;12088;53.078;8.720;2023-05-14T07:12:26;7.00;;;2.85;;
23814;SDS011;12088;53.078;8.720;2023-05-14T07:14:51;4.07;;;2.70;;
23814;SDS011;12088;53.078;8.720;2023-05-14T07:17:17;2.65;;;2.45;;
23814;SDS011;12088;53.078;8.720;2023-05-14T07:19:43;3.55;;;2.80;;
23814;SDS011;12088;53.078;8.720;2023-05-14T07:22:08;4.82;;;2.80;;
23814;SDS011;12088;53.078;8.720;2023-05-14T07:24:34;3.38;;;2.75;;
23814;SDS011;12088;53.078;8.720;2023-05-14T07:26:59;3.55;;;2.83;;
23814;SDS011;12088;53.078;8.720;2023-05-14T07:29:25;4.10;;;2.60;;
23814;SDS011;12088;53.078;8.720;2023-05-14T07:31:51;3.20;;;2.90;;
23814;SDS011;12088;53.078;8.720;2023-05-14T07:34:17;4.30;;;2.78;;
23814;SDS011;12088;53.078;8.720;2023-05-14T07:36:43;3.72;;;2.90;;
23814;SDS011;12088;53.078;8.720;2023-05-14T07:39:09;3.17;;;2.38;;
23814;SDS011;12088;53.078;8.720;2023-05-14T07:41:34;2.60;;;2.30;;
23814;SDS011;12088;53.078;8.720;2023-05-14T07:44:00;2.80;;;2.38;;
23814;SDS011;12088;53.078;8.720;2023-05-14T07:46:26;4.35;;;3.22;;
23814;SDS011;12088;53.078;8.720;2023-05-14T07:48:51;4.18;;;2.28;;
23814;SDS011;12088;53.078;8.720;2023-05-14T07:51:17;3.50;;;2.35;;
23814;SDS011;12088;53.078;8.720;2023-05-14T07:53:42;2.92;;;2.33;;
23814;SDS011;12088;53.078;8.720;2023-05-14T07:56:08;3.95;;;2.30;;
23814;SDS011;12088;53.078;8.720;2023-05-14T07:58:33;4.35;;;2.85;;
23814;SDS011;12088;53.078;8.720;2023-05-14T08:00:59;6.60;;;2.35;;
23814;SDS011;12088;53.078;8.720;2023-05-14T08:03:26;2.88;;;2.47;;
23814;SDS011;12088;53.078;8.720;2023-05-14T08:05:51;3.22;;;2.42;;
23814;SDS011;12088;53.078;8.720;2023-05-14T08:08:17;3.58;;;2.65;;
23814;SDS011;12088;53.078;8.720;2023-05-14T08:10:42;2.88;;;2.42;;
23814;SDS011;12088;53.078;8.720;2023-05-14T08:13:08;2.65;;;2.40;;
23814;SDS011;12088;53.078;8.720;2023-05-14T08:15:33;2.35;;;1.90;;
23814;SDS011;12088;53.078;8.720;2023-05-14T08:17:59;2.92;;;2.35;;
23814;SDS011;12088;53.078;8.720;2023-05-14T08:20:28;2.47;;;2.15;;
23814;SDS011;12088;53.078;8.720;2023-05-14T08:22:55;1.80;;;1.70;;
23814;SDS011;12088;53.078;8.720;2023-05-14T08:25:21;2.53;;;2.10;;
23814;SDS011;12088;53.078;8.720;2023-05-14T08:27:47;3.15;;;2.40;;
23814;SDS011;12088;53.078;8.720;2023-05-14T08:30:13;3.58;;;2.20;;
23814;SDS011;12088;53.078;8.720;2023-05-14T08:32:39;2.55;;;1.80;;
23814;SDS011;12088;53.078;8.720;2023-05-14T08:35:05;2.45;;;2.17;;
23814;SDS011;12088;53.078;8.720;2023-05-14T08:37:31;2.60;;;2.33;;
23814;SDS011;12088;53.078;8.720;2023-05-14T08:39:56;2.47;;;2.10;;
23814;SDS011;12088;53.078;8.720;2023-05-14T08:42:22;3.67;;;2.65;;
23814;SDS011;12088;53.078;8.720;2023-05-14T08:44:52;2.58;;;2.35;;
23814;SDS011;12088;53.078;8.720;2023-05-14T08:47:24;2.67;;;2.22;;
23814;SDS011;12088;53.078;8.720;2023-05-14T08:50:00;3.85;;;1.90;;
23814;SDS011;12088;53.078;8.720;2023-05-14T08:52:31;2.13;;;1.88;;
23814;SDS011;12088;53.078;8.720;2023-05-14T08:55:06;1.95;;;1.52;;
23814;SDS011;12088;53.078;8.720;2023-05-14T08:57:33;3.90;;;1.55;;
23814;SDS011;12088;53.078;8.720;2023-05-14T09:00:00;1.90;;;1.80;;
23814;SDS011;12088;53.078;8.720;2023-05-14T09:02:27;2.08;;;1.98;;
23814;SDS011;12088;53.078;8.720;2023-05-14T09:04:55;3.88;;;2.13;;
23814;SDS011;12088;53.078;8.720;2023-05-14T09:07:22;4.05;;;2.10;;
23814;SDS011;12088;53.078;8.720;2023-05-14T09:09:48;3.67;;;2.00;;
23814;SDS011;12088;53.078;8.720;2023-05-14T09:12:15;2.10;;;1.83;;
23814;SDS011;12088;53.078;8.720;2023-05-14T09:14:41;7.00;;;2.03;;
23814;SDS011;12088;53.078;8.720;2023-05-14T09:17:06;1.58;;;1.48;;
23814;SDS011;12088;53.078;8.720;2023-05-14T09:19:32;5.78;;;1.60;;
23814;SDS011;12088;53.078;8.720;2023-05-14T09:21:58;3.13;;;1.80;;
23814;SDS011;12088;53.078;8.720;2023-05-14T09:24:24;1.83;;;1.45;;
23814;SDS011;12088;53.078;8.720;2023-05-14T09:26:53;3.33;;;1.73;;
23814;SDS011;12088;53.078;8.720;2023-05-14T09:29:28;3.50;;;1.60;;
23814;SDS011;12088;53.078;8.720;2023-05-14T09:31:55;3.53;;;1.92;;
23814;SDS011;12088;53.078;8.720;2023-05-14T09:34:25;2.30;;;2.10;;
23814;SDS011;12088;53.078;8.720;2023-05-14T09:36:56;2.33;;;2.13;;
23814;SDS011;12088;53.078;8.720;2023-05-14T09:39:23;1.48;;;1.38;;
23814;SDS011;12088;53.078;8.720;2023-05-14T09:41:50;1.90;;;1.70;;
23814;SDS011;12088;53.078;8.720;2023-05-14T09:44:16;1.90;;;1.80;;
23814;SDS011;12088;53.078;8.720;2023-05-14T09:46:42;1.90;;;1.60;;
23814;SDS011;12088;53.078;8.720;2023-05-14T09:49:08;2.55;;;1.80;;
23814;SDS011;12088;53.078;8.720;2023-05-14T09:51:34;1.95;;;1.75;;
23814;SDS011;12088;53.078;8.720;2023-05-14T09:54:01;1.88;;;1.77;;
23814;SDS011;12088;53.078;8.720;2023-05-14T09:56:28;1.98;;;1.67;;
23814;SDS011;12088;53.078;8.720;2023-05-14T09:58:54;1.73;;;1.60;;
23814;SDS011;12088;53.078;8.720;2023-05-14T10:01:20;3.85;;;1.95;;
23814;SDS011;12088;53.078;8.720;2023-05-14T10:03:47;1.60;;;1.50;;
23814;SDS011;12088;53.078;8.720;2023-05-14T10:06:14;3.45;;;1.83;;
23814;SDS011;12088;53.078;8.720;2023-05-14T10:08:42;2.13;;;1.83;;
23814;SDS011;12088;53.078;8.720;2023-05-14T10:11:12;1.80;;;1.70;;
23814;SDS011;12088;53.078;8.720;2023-05-14T10:13:47;1.85;;;1.50;;
23814;SDS011;12088;53.078;8.720;2023-05-14T10:18:59;1.88;;;1.60;;
23814;SDS011;12088;53.078;8.720;2023-05-14T10:21:29;1.85;;;1.70;;
23814;SDS011;12088;53.078;8.720;2023-05-14T10:23:58;1.52;;;1.42;;
23814;SDS011;12088;53.078;8.720;2023-05-14T10:26:24;1.95;;;1.80;;
23814;SDS011;12088;53.078;8.720;2023-05-14T10:28:50;3.03;;;1.58;;
23814;SDS011;12088;53.078;8.720;2023-05-14T10:31:16;1.60;;;1.50;;
23814;SDS011;12088;53.078;8.720;2023-05-14T10:33:46;1.50;;;1.40;;
23814;SDS011;12088;53.078;8.720;2023-05-14T10:36:17;2.33;;;1.80;;
23814;SDS011;12088;53.078;8.720;2023-05-14T10:38:43;1.60;;;1.50;;
23814;SDS011;12088;53.078;8.720;2023-05-14T10:41:12;2.35;;;2.13;;
23814;SDS011;12088;53.078;8.720;2023-05-14T10:43:45;1.85;;;1.60;;
23814;SDS011;12088;53.078;8.720;2023-05-14T10:46:16;1.80;;;1.70;;
23814;SDS011;12088;53.078;8.720;2023-05-14T10:48:48;1.63;;;1.50;;
23814;SDS011;12088;53.078;8.720;2023-05-14T10:51:22;2.42;;;2.05;;
23814;SDS011;12088;53.078;8.720;2023-05-14T10:53:59;1.70;;;1.60;;
23814;SDS011;12088;53.078;8.720;2023-05-14T10:56:31;1.40;;;1.30;;
23814;SDS011;12088;53.078;8.720;2023-05-14T10:59:00;1.25;;;1.17;;
23814;SDS011;12088;53.078;8.720;2023-05-14T11:01:29;3.40;;;1.48;;
23814;SDS011;12088;53.078;8.720;2023-05-14T11:03:58;2.10;;;1.90;;
23814;SDS011;12088;53.078;8.720;2023-05-14T11:06:30;2.20;;;1.50;;
23814;SDS011;12088;53.078;8.720;2023-05-14T11:08:56;1.73;;;1.63;;
23814;SDS011;12088;53.078;8.720;2023-05-14T11:11:25;1.83;;;1.70;;
23814;SDS011;12088;53.078;8.720;2023-05-14T11:13:53;2.30;;;1.70;;
23814;SDS011;12088;53.078;8.720;2023-05-14T11:16:21;2.75;;;1.42;;
23814;SDS011;12088;53.078;8.720;2023-05-14T11:18:51;1.60;;;1.50;;
23814;SDS011;12088;53.078;8.720;2023-05-14T11:21:24;4.53;;;1.65;;
23814;SDS011;12088;53.078;8.720;2023-05-14T11:23:53;1.70;;;1.50;;
23814;SDS011;12088;53.078;8.720;2023-05-14T11:26:19;1.75;;;1.60;;
23814;SDS011;12088;53.078;8.720;2023-05-14T11:28:46;1.73;;;1.63;;
23814;SDS011;12088;53.078;8.720;2023-05-14T11:31:15;1.60;;;1.48;;
23814;SDS011;12088;53.078;8.720;2023-05-14T11:33:41;1.70;;;1.60;;
23814;SDS011;12088;53.078;8.720;2023-05-14T11:36:07;1.75;;;1.65;;
23814;SDS011;12088;53.078;8.720;2023-05-14T11:38:35;2.35;;;1.95;;
23814;SDS011;12088;53.078;8.720;2023-05-14T11:41:12;1.58;;;1.48;;
23814;SDS011;12088;53.078;8.720;2023-05-14T11:43:39;2.38;;;1.50;;
23814;SDS011;12088;53.078;8.720;2023-05-14T11:46:08;3.17;;;1.90;;
23814;SDS011;12088;53.078;8.720;2023-05-14T11:48:41;1.25;;;1.15;;
23814;SDS011;12088;53.078;8.720;2023-05-14T11:51:07;2.03;;;1.63;;
23814;SDS011;12088;53.078;8.720;2023-05-14T11:53:33;2.38;;;1.60;;
23814;SDS011;12088;53.078;8.720;2023-05-14T11:56:04;1.83;;;1.73;;
23814;SDS011;12088;53.078;8.720;2023-05-14T11:58:30;5.15;;;1.70;;
23814;SDS011;12088;53.078;8.720;2023-05-14T12:00:59;1.77;;;1.67;;
23814;SDS011;12088;53.078;8.720;2023-05-14T12:03:25;2.20;;;2.00;;
23814;SDS011;12088;53.078;8.720;2023-05-14T12:05:54;1.95;;;1.60;;
23814;SDS011;12088;53.078;8.720;2023-05-14T12:08:20;1.92;;;1.80;;
23814;SDS011;12088;53.078;8.720;2023-05-14T12:10:50;2.63;;;1.52;;
23814;SDS011;12088;53.078;8.720;2023-05-14T12:13:17;1.80;;;1.70;;
23814;SDS011;12088;53.078;8.720;2023-05-14T12:15:43;3.47;;;1.70;;
23814;SDS011;12088;53.078;8.720;2023-05-14T12:18:17;3.25;;;1.50;;
23814;SDS011;12088;53.078;8.720;2023-05-14T12:20:46;4.10;;;1.85;;
23814;SDS011;12088;53.078;8.720;2023-05-14T12:23:16;1.95;;;1.83;;
23814;SDS011;12088;53.078;8.720;2023-05-14T12:25:49;1.88;;;1.77;;
23814;SDS011;12088;53.078;8.720;2023-05-14T12:28:16;1.50;;;1.40;;
23814;SDS011;12088;53.078;8.720;2023-05-14T12:30:43;2.78;;;1.67;;
23814;SDS011;12088;53.078;8.720;2023-05-14T12:33:10;1.80;;;1.70;;
23814;SDS011;12088;53.078;8.720;2023-05-14T12:35:36;2.67;;;1.50;;
23814;SDS011;12088;53.078;8.720;2023-05-14T12:38:05;1.63;;;1.48;;
23814;SDS011;12088;53.078;8.720;2023-05-14T12:40:33;1.65;;;1.55;;
23814;SDS011;12088;53.078;8.720;2023-05-14T12:43:07;3.97;;;1.90;;
23814;SDS011;12088;53.078;8.720;2023-05-14T12:45:35;2.60;;;1.80;;
23814;SDS011;12088;53.078;8.720;2023-05-14T12:48:01;1.60;;;1.50;;
23814;SDS011;12088;53.078;8.720;2023-05-14T12:50:27;1.73;;;1.55;;
23814;SDS011;12088;53.078;8.720;2023-05-14T12:52:56;2.00;;;1.80;;
23814;SDS011;12088;53.078;8.720;2023-05-14T12:55:21;2.13;;;1.83;;
23814;SDS011;12088;53.078;8.720;2023-05-14T12:57:47;2.20;;;1.95;;
23814;SDS011;12088;53.078;8.720;2023-05-14T13:00:15;1.77;;;1.67;;
23814;SDS011;12088;53.078;8.720;2023-05-14T13:02:41;2.08;;;1.83;;
23814;SDS011;12088;53.078;8.720;2023-05-14T13:05:07;1.80;;;1.70;;
23814;SDS011;12088;53.078;8.720;2023-05-14T13:07:33;1.40;;;1.30;;
23814;SDS011;12088;53.078;8.720;2023-05-14T13:10:00;1.58;;;1.48;;
23814;SDS011;12088;53.078;8.720;2023-05-14T13:12:30;1.85;;;1.75;;
23814;SDS011;12088;53.078;8.720;2023-05-14T13:14:58;1.75;;;1.65;;
23814;SDS011;12088;53.078;8.720;2023-05-14T13:17:24;2.13;;;1.92;;
23814;SDS011;12088;53.078;8.720;2023-05-14T13:19:50;3.03;;;1.58;;
23814;SDS011;12088;53.078;8.720;2023-05-14T13:22:16;1.92;;;1.80;;
23814;SDS011;12088;53.078;8.720;2023-05-14T13:24:42;2.75;;;2.10;;
23814;SDS011;12088;53.078;8.720;2023-05-14T13:27:14;1.92;;;1.55;;
23814;SDS011;12088;53.078;8.720;2023-05-14T13:29:40;1.80;;;1.70;;
23814;SDS011;12088;53.078;8.720;2023-05-14T13:32:08;2.17;;;2.00;;
23814;SDS011;12088;53.078;8.720;2023-05-14T13:34:34;5.35;;;1.70;;
23814;SDS011;12088;53.078;8.720;2023-05-14T13:37:00;2.00;;;1.80;;
23814;SDS011;12088;53.078;8.720;2023-05-14T13:39:26;1.65;;;1.50;;
23814;SDS011;12088;53.078;8.720;2023-05-14T13:41:53;1.90;;;1.70;;
23814;SDS011;12088;53.078;8.720;2023-05-14T13:44:23;1.70;;;1.60;;
23814;SDS011;12088;53.078;8.720;2023-05-14T13:46:52;1.95;;;1.60;;
23814;SDS011;12088;53.078;8.720;2023-05-14T13:49:23;1.85;;;1.75;;
23814;SDS011;12088;53.078;8.720;2023-05-14T13:51:49;1.70;;;1.60;;
23814;SDS011;12088;53.078;8.720;2023-05-14T13:54:14;2.70;;;1.92;;
23814;SDS011;12088;53.078;8.720;2023-05-14T13:56:43;1.60;;;1.50;;
23814;SDS011;12088;53.078;8.720;2023-05-14T13:59:11;2.65;;;1.60;;
23814;SDS011;12088;53.078;8.720;2023-05-14T14:01:37;1.92;;;1.80;;
23814;SDS011;12088;53.078;8.720;2023-05-14T14:04:08;1.88;;;1.77;;
23814;SDS011;12088;53.078;8.720;2023-05-14T14:06:34;2.47;;;1.83;;
23814;SDS011;12088;53.078;8.720;2023-05-14T14:09:00;3.05;;;1.80;;
23814;SDS011;12088;53.078;8.720;2023-05-14T14:11:28;1.60;;;1.48;;
23814;SDS011;12088;53.078;8.720;2023-05-14T14:14:10;1.92;;;1.70;;
23814;SDS011;12088;53.078;8.720;2023-05-14T14:16:38;1.45;;;1.35;;
23814;SDS011;12088;53.078;8.720;2023-05-14T14:19:06;1.98;;;1.58;;
23814;SDS011;12088;53.078;8.720;2023-05-14T14:21:32;2.47;;;1.60;;
23814;SDS011;12088;53.078;8.720;2023-05-14T14:24:01;2.65;;;2.00;;
23814;SDS011;12088;53.078;8.720;2023-05-14T14:26:27;1.80;;;1.70;;
23814;SDS011;12088;53.078;8.720;2023-05-14T14:28:56;2.33;;;2.13;;
23814;SDS011;12088;53.078;8.720;2023-05-14T14:31:22;1.75;;;1.65;;
23814;SDS011;12088;53.078;8.720;2023-05-14T14:33:48;1.55;;;1.45;;
23814;SDS011;12088;53.078;8.720;2023-05-14T14:36:16;1.90;;;1.80;;
23814;SDS011;12088;53.078;8.720;2023-05-14T14:38:48;2.17;;;1.95;;
23814;SDS011;12088;53.078;8.720;2023-05-14T14:41:17;2.30;;;2.10;;
23814;SDS011;12088;53.078;8.720;2023-05-14T14:43:49;5.30;;;2.17;;
23814;SDS011;12088;53.078;8.720;2023-05-14T14:46:17;2.22;;;1.67;;
23814;SDS011;12088;53.078;8.720;2023-05-14T14:48:48;4.38;;;1.65;;
23814;SDS011;12088;53.078;8.720;2023-05-14T14:51:14;2.03;;;1.92;;